Terminal Aerodrome Forecast
Issued by NWS Boston, MA

Home | Current Version | Previous Version | Text Only | Print | Product List | Glossary On
Versions: 1 2 3 4 5 6 7 8 9 10 11 12 13 14 15 16 17 18 19 20 21 22
000
FTUS41 KBOX 252322
TAFPVD
TAF
KPVD 252322Z 2600/2624 16005KT P6SM SCT010
     FM260200 15003KT 5SM BR BKN008
     FM260400 00000KT 1SM BR OVC003
     FM261400 VRB03KT P6SM BKN008
     FM261500 VRB03KT P6SM SCT015
     FM261600 15004KT P6SM SCT250=

USA.gov is the U.S. government's official web portal to all federal, state and local government web resources and services.